Time;durP1;ratioP1;P1;durP2;ratioP2;P2;SDS_P1;SDS_P2;PMS_P1;PMS_P2;Temp;Humidity;BMP_temperature;BMP_pressure;BME280_temperature;BME280_humidity;BME280_pressure;Samples;Min_cycle;Max_cycle;Signal;HPM_P1;HPM_P2
2021/06/07 00:00:41;;;;;;;;;;;;;;;12.80;71.01;100792.58;104690;1093;77034;-61
2021/06/07 00:02:58;;;;;;;;;;;;;;;12.83;70.99;100807.61;104686;1094;77763;-63
2021/06/07 00:05:02;;;;;;;;;;;;;;;12.81;71.16;100806.98;104693;1093;78575;-66
2021/06/07 00:07:08;;;;;;;;;;;;;;;12.80;71.10;100799.90;104728;1093;77707;-58
2021/06/07 00:09:17;;;;;;;;;;;;;;;12.76;71.24;100806.73;104672;1094;77905;-56
2021/06/07 00:11:21;;;;;;;;;;;;;;;12.77;71.24;100800.28;104698;1093;77845;-65
2021/06/07 00:13:26;;;;;;;;;;;;;;;12.75;71.23;100796.91;104673;1093;77295;-64
2021/06/07 00:15:31;;;;;;;;;;;;;;;12.74;71.44;100800.67;104756;1093;76899;-66
2021/06/07 00:17:38;;;;;;;;;;;;;;;12.70;71.39;100802.92;104703;1093;76719;-64
2021/06/07 00:19:43;;;;;;;;;;;;;;;12.66;71.58;100792.66;104730;1093;77783;-64
2021/06/07 00:21:47;;;;;;;;;;;;;;;12.61;71.60;100804.06;104730;1093;77368;-65
2021/06/07 00:23:52;;;;;;;;;;;;;;;12.58;71.65;100798.21;104695;1092;77840;-63
2021/06/07 00:25:56;;;;;;;;;;;;;;;12.54;71.83;100797.75;104676;1093;78025;-57
2021/06/07 00:28:00;;;;;;;;;;;;;;;12.53;71.75;100795.21;104670;1093;78128;-56
2021/06/07 00:30:07;;;;;;;;;;;;;;;12.51;71.88;100803.55;104704;1093;77135;-57
2021/06/07 00:32:11;;;;;;;;;;;;;;;12.49;71.98;100792.06;104706;1093;77597;-64
2021/06/07 00:34:21;;;;;;;;;;;;;;;12.47;71.94;100798.72;104701;1093;77875;-65
2021/06/07 00:36:26;;;;;;;;;;;;;;;12.42;71.98;100793.85;104712;1093;78462;-57
2021/06/07 00:38:30;;;;;;;;;;;;;;;12.39;72.26;100796.94;104680;1093;77099;-55
2021/06/07 00:40:35;;;;;;;;;;;;;;;12.36;72.28;100803.58;104721;1093;76746;-57
2021/06/07 00:42:39;;;;;;;;;;;;;;;12.34;72.47;100800.23;104759;1093;77452;-64
2021/06/07 00:44:46;;;;;;;;;;;;;;;12.30;72.48;100796.24;104679;1093;77979;-63
2021/06/07 00:46:50;;;;;;;;;;;;;;;12.26;72.40;100799.50;104732;1093;77330;-64
2021/06/07 00:48:57;;;;;;;;;;;;;;;12.23;72.50;100794.46;104697;1093;78499;-65
2021/06/07 00:51:04;;;;;;;;;;;;;;;12.18;72.49;100796.91;104699;1092;77597;-65
2021/06/07 00:53:11;;;;;;;;;;;;;;;12.17;72.46;100806.05;104703;1093;76828;-65
2021/06/07 00:55:15;;;;;;;;;;;;;;;12.15;72.75;100813.53;104682;1093;77547;-64
2021/06/07 00:57:19;;;;;;;;;;;;;;;12.14;72.79;100812.69;104677;1093;77531;-57
2021/06/07 00:59:24;;;;;;;;;;;;;;;12.17;73.04;100812.31;104683;1093;77140;-56
2021/06/07 01:01:28;;;;;;;;;;;;;;;12.22;73.09;100799.03;104755;1093;77794;-58
2021/06/07 01:03:34;;;;;;;;;;;;;;;12.23;73.04;100806.14;104671;1093;77770;-58
2021/06/07 01:05:41;;;;;;;;;;;;;;;12.20;73.28;100811.94;104686;1092;77198;-58
2021/06/07 01:07:48;;;;;;;;;;;;;;;12.19;73.29;100806.72;104700;1093;76899;-57
2021/06/07 01:09:52;;;;;;;;;;;;;;;12.18;73.22;100814.00;104696;1092;77169;-57
2021/06/07 01:11:59;;;;;;;;;;;;;;;12.20;73.51;100805.67;104783;1092;77539;-57
2021/06/07 01:14:04;;;;;;;;;;;;;;;12.22;73.16;100801.74;104822;1093;77666;-59
2021/06/07 01:16:08;;;;;;;;;;;;;;;12.23;73.40;100806.14;104799;1093;76788;-65
2021/06/07 01:18:15;;;;;;;;;;;;;;;12.20;73.51;100800.25;104800;1093;77607;-65
2021/06/07 01:20:21;;;;;;;;;;;;;;;12.17;73.55;100795.22;104821;1093;77894;-64
2021/06/07 01:22:25;;;;;;;;;;;;;;;12.13;73.69;100802.91;104757;1093;76541;-64
2021/06/07 01:24:29;;;;;;;;;;;;;;;12.08;73.56;100797.22;104697;1093;77453;-66
2021/06/07 01:26:33;;;;;;;;;;;;;;;12.11;73.87;100802.27;104740;1093;77922;-57
2021/06/07 01:28:39;;;;;;;;;;;;;;;12.12;73.74;100794.95;104680;1093;76791;-57
2021/06/07 01:30:46;;;;;;;;;;;;;;;12.11;73.75;100802.27;104688;1094;77519;-65
2021/06/07 01:32:53;;;;;;;;;;;;;;;12.09;73.80;100804.30;104698;1093;78293;-63
2021/06/07 01:34:57;;;;;;;;;;;;;;;12.06;73.77;100806.56;104717;1093;77060;-66
2021/06/07 01:37:02;;;;;;;;;;;;;;;12.04;73.67;100803.19;104704;1093;78537;-57
2021/06/07 01:39:07;;;;;;;;;;;;;;;12.02;74.09;100806.09;104742;1093;77162;-57
2021/06/07 01:41:13;;;;;;;;;;;;;;;12.02;73.81;100802.55;104708;1093;77592;-58
2021/06/07 01:43:17;;;;;;;;;;;;;;;11.97;73.84;100802.27;104711;1093;76941;-57
2021/06/07 01:45:23;;;;;;;;;;;;;;;11.93;74.05;100803.66;104698;1093;78461;-59
2021/06/07 01:47:28;;;;;;;;;;;;;;;11.92;74.12;100810.13;104773;1093;77451;-63
2021/06/07 01:49:31;;;;;;;;;;;;;;;11.93;74.16;100811.78;104684;1093;77520;-64
2021/06/07 01:51:39;;;;;;;;;;;;;;;11.93;74.24;100818.05;104725;1093;78112;-57
2021/06/07 01:53:44;;;;;;;;;;;;;;;11.95;74.18;100813.27;104713;1091;77717;-57
2021/06/07 01:55:51;;;;;;;;;;;;;;;12.00;74.25;100810.02;104675;1093;78031;-64
2021/06/07 01:57:55;;;;;;;;;;;;;;;11.99;74.35;100809.17;104732;1093;77091;-64
2021/06/07 02:00:03;;;;;;;;;;;;;;;11.96;74.49;100808.70;104699;1093;77009;-64
2021/06/07 02:02:10;;;;;;;;;;;;;;;11.92;74.62;100810.94;104701;1092;78103;-65
2021/06/07 02:04:14;;;;;;;;;;;;;;;11.93;74.51;100811.78;104681;1093;76612;-65
2021/06/07 02:06:20;;;;;;;;;;;;;;;11.93;74.63;100815.34;104683;1093;77501;-65
2021/06/07 02:08:31;;;;;;;;;;;;;;;11.95;74.49;100817.88;104686;1093;78040;-65
2021/06/07 02:10:39;;;;;;;;;;;;;;;11.96;74.58;100814.96;104662;1093;77708;-65
2021/06/07 02:12:43;;;;;;;;;;;;;;;11.96;74.63;100816.83;104696;1092;76534;-65
2021/06/07 02:14:47;;;;;;;;;;;;;;;11.95;74.51;100812.46;104716;1093;76802;-65
2021/06/07 02:16:51;;;;;;;;;;;;;;;11.91;74.61;100809.28;104733;1092;77622;-65
2021/06/07 02:18:55;;;;;;;;;;;;;;;11.88;74.48;100811.52;104703;1093;77222;-64
2021/06/07 02:20:59;;;;;;;;;;;;;;;11.89;74.64;100816.76;104737;1093;77735;-57
2021/06/07 02:23:03;;;;;;;;;;;;;;;11.90;74.82;100815.70;104700;1093;77344;-56
2021/06/07 02:25:10;;;;;;;;;;;;;;;11.93;74.92;100820.75;104735;1093;77981;-57
2021/06/07 02:27:14;;;;;;;;;;;;;;;11.96;74.86;100820.38;104726;1092;77943;-64
2021/06/07 02:29:18;;;;;;;;;;;;;;;11.96;74.75;100814.96;104660;1093;77927;-64
2021/06/07 02:31:23;;;;;;;;;;;;;;;11.98;74.77;100817.47;104697;1093;77782;-56
2021/06/07 02:33:27;;;;;;;;;;;;;;;11.96;74.75;100816.83;104688;1093;76862;-57
2021/06/07 02:35:31;;;;;;;;;;;;;;;11.94;74.98;100816.18;104726;1093;78181;-57
2021/06/07 02:37:35;;;;;;;;;;;;;;;11.95;74.76;100817.88;104707;1093;77976;-66
2021/06/07 02:39:39;;;;;;;;;;;;;;;11.92;75.01;100813.64;104707;1093;76712;-63
2021/06/07 02:41:44;;;;;;;;;;;;;;;11.94;75.00;100814.32;104703;1093;77779;-58
2021/06/07 02:43:49;;;;;;;;;;;;;;;11.93;74.73;100820.75;104735;1093;77186;-57
2021/06/07 02:45:53;;;;;;;;;;;;;;;11.93;74.93;100815.34;104683;1093;76713;-57
2021/06/07 02:47:59;;;;;;;;;;;;;;;11.88;74.95;100817.77;104705;1093;77290;-58
2021/06/07 02:50:10;;;;;;;;;;;;;;;11.90;74.85;100809.45;104690;1092;76599;-58
2021/06/07 02:52:14;;;;;;;;;;;;;;;11.92;74.91;100816.35;104741;1094;76850;-63
2021/06/07 02:54:18;;;;;;;;;;;;;;;11.94;75.01;100817.03;104673;1093;78460;-63
2021/06/07 02:56:25;;;;;;;;;;;;;;;11.96;75.14;100816.83;104735;1093;77741;-63
2021/06/07 02:58:32;;;;;;;;;;;;;;;11.99;75.09;100820.01;104701;1093;77891;-65
2021/06/07 03:00:47;;;;;;;;;;;;;;;12.02;75.18;100818.79;104683;1093;78160;-65
2021/06/07 03:02:51;;;;;;;;;;;;;;;12.04;75.06;100822.98;104700;1093;77695;-56
2021/06/07 03:04:55;;;;;;;;;;;;;;;12.08;74.92;100827.01;104695;1093;76959;-59
2021/06/07 03:07:02;;;;;;;;;;;;;;;12.12;75.20;100822.88;104702;1093;77970;-63
2021/06/07 03:09:06;;;;;;;;;;;;;;;12.18;75.15;100819.42;104681;1093;77751;-63
2021/06/07 03:11:11;;;;;;;;;;;;;;;12.25;75.28;100828.45;104709;1091;77092;-64
2021/06/07 03:13:19;;;;;;;;;;;;;;;12.30;75.31;100828.75;104683;1097;77740;-65
2021/06/07 03:15:24;;;;;;;;;;;;;;;12.34;75.25;100824.61;104682;1092;77203;-65
2021/06/07 03:17:31;;;;;;;;;;;;;;;12.40;75.29;100829.28;104728;1093;79196;-63
2021/06/07 03:19:34;;;;;;;;;;;;;;;12.46;75.17;100824.97;104700;1093;77483;-65
2021/06/07 03:21:38;;;;;;;;;;;;;;;12.54;75.23;100832.98;104703;1093;78116;-64
2021/06/07 03:23:44;;;;;;;;;;;;;;;12.65;75.41;100826.21;104694;1093;77212;-65
2021/06/07 03:25:50;;;;;;;;;;;;;;;13.05;75.65;100817.42;104663;1093;76860;-66
2021/06/07 03:27:54;;;;;;;;;;;;;;;13.45;75.24;100832.20;104693;1093;76853;-65
2021/06/07 03:29:58;;;;;;;;;;;;;;;13.90;74.68;100825.41;104673;1093;77778;-65
2021/06/07 03:32:03;;;;;;;;;;;;;;;14.41;74.14;100824.00;104659;1093;77448;-65
2021/06/07 03:34:07;;;;;;;;;;;;;;;15.29;73.68;100825.61;104701;1092;77666;-63
2021/06/07 03:36:12;;;;;;;;;;;;;;;16.59;72.30;100818.17;104694;1093;76944;-57
2021/06/07 03:38:17;;;;;;;;;;;;;;;17.81;70.89;100823.12;104713;1093;76950;-58
2021/06/07 03:40:23;;;;;;;;;;;;;;;18.91;69.46;100817.33;104715;1093;77335;-57
2021/06/07 03:42:27;;;;;;;;;;;;;;;19.81;67.97;100823.41;104750;1093;77079;-64
2021/06/07 03:44:31;;;;;;;;;;;;;;;20.63;66.62;100819.44;104665;1093;78489;-65
2021/06/07 03:46:35;;;;;;;;;;;;;;;21.49;65.35;100815.52;104669;1093;77488;-57
2021/06/07 03:48:39;;;;;;;;;;;;;;;22.28;63.73;100820.55;104678;1093;77802;-56
2021/06/07 03:50:43;;;;;;;;;;;;;;;22.96;62.06;100813.66;104458;1092;77250;-58
2021/06/07 03:52:47;;;;;;;;;;;;;;;23.62;60.53;100812.31;104526;1093;78157;-57
2021/06/07 03:54:51;;;;;;;;;;;;;;;24.20;58.68;100818.77;104718;1092;77535;-58
2021/06/07 03:56:55;;;;;;;;;;;;;;;24.71;57.26;100815.08;104692;1093;77953;-66
2021/06/07 03:59:02;;;;;;;;;;;;;;;25.12;55.85;100810.48;104679;1093;77112;-65
2021/06/07 04:01:06;;;;;;;;;;;;;;;25.49;54.16;100811.06;104682;1093;79157;-65
2021/06/07 04:03:11;;;;;;;;;;;;;;;25.80;53.13;100811.86;104666;1093;76852;-65
2021/06/07 04:05:15;;;;;;;;;;;;;;;26.06;51.76;100816.25;104680;1093;77398;-64
2021/06/07 04:07:19;;;;;;;;;;;;;;;25.67;50.57;100813.28;104645;1093;78216;-58
2021/06/07 04:09:23;;;;;;;;;;;;;;;24.44;50.63;100820.81;104675;1093;76993;-56
2021/06/07 04:11:27;;;;;;;;;;;;;;;23.51;51.22;100823.53;104729;1093;77660;-67
2021/06/07 04:13:34;;;;;;;;;;;;;;;22.83;51.54;100825.06;104685;1093;78491;-64
2021/06/07 04:15:44;;;;;;;;;;;;;;;22.27;52.29;100829.07;104550;1092;78208;-60
2021/06/07 04:17:49;;;;;;;;;;;;;;;22.29;52.47;100824.13;104735;1093;77357;-66
2021/06/07 04:19:53;;;;;;;;;;;;;;;22.85;52.95;100829.22;104689;1093;77818;-65
2021/06/07 04:21:57;;;;;;;;;;;;;;;24.34;51.97;100825.44;104719;1093;77979;-65
2021/06/07 04:24:01;;;;;;;;;;;;;;;25.67;49.80;100820.74;104682;1093;78365;-64
2021/06/07 04:26:05;;;;;;;;;;;;;;;26.60;48.45;100823.80;104730;1092;77332;-65
2021/06/07 04:28:09;;;;;;;;;;;;;;;27.38;46.19;100831.09;104706;1093;77981;-64
2021/06/07 04:30:16;;;;;;;;;;;;;;;27.80;44.53;100832.42;104697;1093;77847;-64
2021/06/07 04:32:20;;;;;;;;;;;;;;;28.11;42.47;100825.44;104773;1093;78457;-66
2021/06/07 04:34:23;;;;;;;;;;;;;;;28.65;42.22;100830.65;104706;1093;77408;-65
2021/06/07 04:36:27;;;;;;;;;;;;;;;28.56;40.90;100829.62;104694;1092;77546;-65
2021/06/07 04:38:31;;;;;;;;;;;;;;;28.59;41.18;100831.80;104673;1093;77567;-65
2021/06/07 04:40:39;;;;;;;;;;;;;;;28.63;40.21;100832.88;104689;1093;77447;-66
2021/06/07 04:42:43;;;;;;;;;;;;;;;29.14;39.75;100819.08;104676;1093;77523;-58
2021/06/07 04:44:50;;;;;;;;;;;;;;;29.62;39.80;100816.89;104683;1093;78228;-56
2021/06/07 04:46:54;;;;;;;;;;;;;;;30.12;38.59;100823.50;104712;1093;78769;-58
2021/06/07 04:49:01;;;;;;;;;;;;;;;29.89;37.72;100822.55;104688;1093;78114;-57
2021/06/07 04:51:08;;;;;;;;;;;;;;;30.22;37.02;100832.48;104682;1092;77548;-57
2021/06/07 04:53:15;;;;;;;;;;;;;;;30.67;36.36;100825.16;104686;1093;77649;-58
2021/06/07 04:55:19;;;;;;;;;;;;;;;30.65;35.76;100833.03;104664;1093;78334;-56
2021/06/07 04:57:23;;;;;;;;;;;;;;;30.98;34.88;100832.88;104680;1093;77374;-56
2021/06/07 04:59:27;;;;;;;;;;;;;;;31.09;35.24;100829.54;104685;1093;77728;-54
2021/06/07 05:01:31;;;;;;;;;;;;;;;31.90;33.87;100833.07;104701;1093;77553;-57
2021/06/07 05:03:35;;;;;;;;;;;;;;;32.24;33.78;100830.48;104681;1093;77564;-59
2021/06/07 05:05:39;;;;;;;;;;;;;;;32.55;33.48;100830.45;104549;1093;78373;-57
2021/06/07 05:07:43;;;;;;;;;;;;;;;32.50;32.09;100836.14;104721;1092;77654;-54
2021/06/07 05:09:47;;;;;;;;;;;;;;;32.64;31.18;100836.87;104695;1092;77340;-54
2021/06/07 05:11:51;;;;;;;;;;;;;;;32.41;31.32;100833.34;104753;1093;76764;-57
2021/06/07 05:13:55;;;;;;;;;;;;;;;32.55;30.74;100833.25;104685;1093;77844;-57
2021/06/07 05:16:03;;;;;;;;;;;;;;;32.55;30.55;100836.05;104738;1093;78278;-56
2021/06/07 05:18:08;;;;;;;;;;;;;;;32.58;29.74;100840.96;104744;1092;77483;-57
2021/06/07 05:20:15;;;;;;;;;;;;;;;32.43;29.93;100824.61;104712;1093;77234;-57
2021/06/07 05:22:22;;;;;;;;;;;;;;;32.67;29.56;100828.66;104723;1093;78281;-57
2021/06/07 05:24:26;;;;;;;;;;;;;;;32.75;29.43;100834.58;104664;1093;77824;-57
2021/06/07 05:26:30;;;;;;;;;;;;;;;33.07;28.97;100834.97;104784;1093;77638;-56
2021/06/07 05:28:34;;;;;;;;;;;;;;;33.24;28.16;100820.98;104694;1093;77639;-55
2021/06/07 05:30:44;;;;;;;;;;;;;;;33.36;27.08;100819.48;104699;1093;77061;-56
2021/06/07 05:32:48;;;;;;;;;;;;;;;33.72;27.29;100819.95;104746;1093;76899;-56
2021/06/07 05:34:52;;;;;;;;;;;;;;;34.22;26.36;100826.58;104697;1093;78371;-58
2021/06/07 05:36:56;;;;;;;;;;;;;;;34.43;27.02;100820.18;104784;1093;77308;-55
2021/06/07 05:39:00;;;;;;;;;;;;;;;34.12;26.10;100820.49;104823;1093;77737;-55
2021/06/07 05:41:04;;;;;;;;;;;;;;;34.26;26.79;100830.34;104828;1093;77127;-63
2021/06/07 05:43:08;;;;;;;;;;;;;;;34.73;25.43;100824.66;104772;1092;77382;-62
2021/06/07 05:45:14;;;;;;;;;;;;;;;34.44;25.43;100821.84;104698;1093;78163;-64
2021/06/07 05:47:19;;;;;;;;;;;;;;;34.28;25.28;100828.01;104779;1093;77925;-62
2021/06/07 05:49:23;;;;;;;;;;;;;;;34.36;24.51;100831.95;104472;1093;77247;-64
2021/06/07 05:51:27;;;;;;;;;;;;;;;34.39;23.55;100826.47;104773;1093;76730;-58
2021/06/07 05:53:30;;;;;;;;;;;;;;;34.26;24.32;100829.51;104433;1093;77140;-58
2021/06/07 05:55:40;;;;;;;;;;;;;;;34.22;24.05;100834.99;104664;1093;78140;-58
2021/06/07 05:57:48;;;;;;;;;;;;;;;34.11;24.80;100830.91;104758;1093;78416;-59
2021/06/07 05:59:52;;;;;;;;;;;;;;;34.14;24.00;100829.41;104729;1093;78009;-57
2021/06/07 06:01:56;;;;;;;;;;;;;;;34.43;24.14;100835.04;104691;1093;77862;-58
2021/06/07 06:04:04;;;;;;;;;;;;;;;34.79;23.70;100831.72;104695;1093;78162;-59
2021/06/07 06:06:08;;;;;;;;;;;;;;;34.96;22.39;100835.23;104743;1093;77630;-65
2021/06/07 06:08:18;;;;;;;;;;;;;;;34.78;22.81;100830.89;104708;1093;78120;-65
2021/06/07 06:10:25;;;;;;;;;;;;;;;34.86;23.02;100830.00;104706;1093;77533;-64
2021/06/07 06:12:29;;;;;;;;;;;;;;;34.87;23.88;100831.66;104788;1092;77241;-59
2021/06/07 06:14:33;;;;;;;;;;;;;;;34.85;23.66;100838.78;104772;1092;76954;-58
2021/06/07 06:16:39;;;;;;;;;;;;;;;34.68;23.56;100836.91;104737;1093;77346;-60
2021/06/07 06:18:43;;;;;;;;;;;;;;;34.93;23.47;100840.70;104758;1093;78482;-58
2021/06/07 06:20:47;;;;;;;;;;;;;;;34.98;23.66;100844.13;104753;1093;78392;-58
2021/06/07 06:22:51;;;;;;;;;;;;;;;35.09;22.86;100846.55;104758;1092;76819;-57
2021/06/07 06:24:55;;;;;;;;;;;;;;;34.99;22.55;100844.96;104755;1093;76732;-58
2021/06/07 06:26:59;;;;;;;;;;;;;;;34.90;22.92;100847.83;104743;1093;78591;-59
2021/06/07 06:29:03;;;;;;;;;;;;;;;35.01;22.84;100841.80;104710;1093;77615;-57
2021/06/07 06:31:08;;;;;;;;;;;;;;;35.36;22.17;100843.17;104712;1093;76933;-63
2021/06/07 06:33:12;;;;;;;;;;;;;;;35.53;22.43;100841.04;104703;1093;77471;-63
2021/06/07 06:35:18;;;;;;;;;;;;;;;35.74;22.07;100846.63;104691;1093;77962;-63
2021/06/07 06:37:22;;;;;;;;;;;;;;;35.73;21.90;100852.61;104661;1093;78206;-67
2021/06/07 06:39:26;;;;;;;;;;;;;;;36.27;21.07;100845.70;104693;1093;78378;-64
2021/06/07 06:41:31;;;;;;;;;;;;;;;36.36;21.19;100857.69;104752;1092;77497;-57
2021/06/07 06:43:36;;;;;;;;;;;;;;;36.29;21.11;100848.98;104691;1093;78067;-56
2021/06/07 06:45:41;;;;;;;;;;;;;;;36.39;21.00;100851.36;104439;1093;77947;-61
2021/06/07 06:47:45;;;;;;;;;;;;;;;35.89;21.21;100848.80;104730;1093;77328;-68
2021/06/07 06:49:49;;;;;;;;;;;;;;;35.68;21.86;100850.02;104734;1093;79825;-59
2021/06/07 06:51:56;;;;;;;;;;;;;;;36.11;21.49;100847.57;104751;1093;76727;-63
2021/06/07 06:54:00;;;;;;;;;;;;;;;36.08;20.59;100846.28;104785;1093;77864;-60
2021/06/07 06:56:05;;;;;;;;;;;;;;;35.91;20.89;100849.26;104701;1093;78008;-61
2021/06/07 06:58:09;;;;;;;;;;;;;;;36.10;20.58;100851.55;104721;1093;77529;-61
2021/06/07 07:00:15;;;;;;;;;;;;;;;35.95;19.98;100846.58;104686;1093;78339;-62
2021/06/07 07:02:22;;;;;;;;;;;;;;;35.74;20.58;100849.44;104750;1093;77970;-64
2021/06/07 07:04:29;;;;;;;;;;;;;;;35.83;20.59;100852.98;104768;1093;77432;-62
2021/06/07 07:06:33;;;;;;;;;;;;;;;36.18;20.52;100852.63;104737;1093;78455;-54
2021/06/07 07:08:37;;;;;;;;;;;;;;;36.56;20.37;100850.33;104703;1092;77556;-53
2021/06/07 07:10:43;;;;;;;;;;;;;;;36.36;20.01;100849.23;104700;1093;76581;-56
2021/06/07 07:12:48;;;;;;;;;;;;;;;36.00;19.79;100849.16;104766;1093;78122;-55
2021/06/07 07:14:52;;;;;;;;;;;;;;;36.19;19.84;100849.45;104709;1093;77863;-56
2021/06/07 07:16:55;;;;;;;;;;;;;;;35.94;19.96;100842.11;104778;1092;76972;-54
2021/06/07 07:18:59;;;;;;;;;;;;;;;36.16;20.29;100852.14;104675;1093;78313;-54
2021/06/07 07:21:04;;;;;;;;;;;;;;;36.64;21.10;100844.58;104693;1093;78103;-60
2021/06/07 07:23:08;;;;;;;;;;;;;;;36.80;20.30;100852.29;104726;1093;77444;-64
2021/06/07 07:25:14;;;;;;;;;;;;;;;36.45;19.98;100852.73;104745;1093;77020;-62
2021/06/07 07:27:20;;;;;;;;;;;;;;;36.73;20.73;100852.08;104713;1093;77007;-56
2021/06/07 07:29:24;;;;;;;;;;;;;;;36.71;19.87;100855.23;104738;1092;77119;-54
2021/06/07 07:31:28;;;;;;;;;;;;;;;36.52;19.65;100855.01;104727;1093;77989;-55
2021/06/07 07:33:37;;;;;;;;;;;;;;;36.74;20.89;100856.52;104714;1093;77983;-59
2021/06/07 07:35:45;;;;;;;;;;;;;;;36.23;20.06;100855.22;104693;1093;77792;-61
2021/06/07 07:37:50;;;;;;;;;;;;;;;36.18;20.46;100855.45;104698;1093;76926;-61
2021/06/07 07:39:54;;;;;;;;;;;;;;;36.56;20.35;100856.76;104689;1092;78149;-64
2021/06/07 07:42:01;;;;;;;;;;;;;;;36.43;20.76;100852.28;104750;1093;78111;-54
2021/06/07 07:44:06;;;;;;;;;;;;;;;36.48;20.37;100849.22;104785;1093;77559;-58
2021/06/07 07:46:10;;;;;;;;;;;;;;;37.03;20.66;100851.44;104703;1093;78179;-62
2021/06/07 07:48:14;;;;;;;;;;;;;;;37.14;20.44;100861.04;104677;1093;78085;-62
2021/06/07 07:50:19;;;;;;;;;;;;;;;37.32;19.90;100855.13;104690;1093;77862;-66
2021/06/07 07:52:23;;;;;;;;;;;;;;;36.85;19.09;100852.87;104847;1093;76847;-55
2021/06/07 07:54:27;;;;;;;;;;;;;;;36.29;20.21;100854.61;104834;1093;77671;-56
2021/06/07 07:56:31;;;;;;;;;;;;;;;36.36;19.92;100848.41;104793;1093;77574;-57
2021/06/07 07:58:36;;;;;;;;;;;;;;;35.89;19.99;100848.80;104755;1093;77256;-57
2021/06/07 08:00:41;;;;;;;;;;;;;;;35.77;20.10;100845.11;104703;1093;77516;-59
2021/06/07 08:02:45;;;;;;;;;;;;;;;35.94;20.24;100854.19;104689;1093;77126;-55
2021/06/07 08:04:49;;;;;;;;;;;;;;;36.19;19.92;100852.27;104689;1093;77525;-60
2021/06/07 08:06:53;;;;;;;;;;;;;;;36.40;20.76;100855.79;104718;1093;76789;-54
2021/06/07 08:08:57;;;;;;;;;;;;;;;36.78;20.74;100851.83;104691;1093;78023;-56
2021/06/07 08:11:01;;;;;;;;;;;;;;;36.34;20.12;100853.58;104756;1093;76939;-62
2021/06/07 08:13:06;;;;;;;;;;;;;;;36.25;20.67;100848.06;104743;1092;78271;-61
2021/06/07 08:15:12;;;;;;;;;;;;;;;36.54;20.99;100849.84;104703;1093;77442;-62
2021/06/07 08:17:16;;;;;;;;;;;;;;;36.82;20.21;100847.94;104761;1093;78255;-57
2021/06/07 08:19:20;;;;;;;;;;;;;;;36.58;20.17;100845.98;104779;1093;77544;-59
2021/06/07 08:21:27;;;;;;;;;;;;;;;36.81;20.13;100849.11;104736;1092;76983;-65
2021/06/07 08:23:31;;;;;;;;;;;;;;;36.90;19.66;100846.16;104720;1093;77109;-61
2021/06/07 08:25:35;;;;;;;;;;;;;;;37.12;19.96;100848.48;104689;1093;76916;-62
2021/06/07 08:27:39;;;;;;;;;;;;;;;37.17;19.83;100845.41;104533;1092;77191;-61
2021/06/07 08:29:43;;;;;;;;;;;;;;;37.34;19.84;100844.30;104699;1093;78580;-61
2021/06/07 08:31:47;;;;;;;;;;;;;;;37.67;20.44;100850.52;104725;1093;77028;-62
2021/06/07 08:33:54;;;;;;;;;;;;;;;37.62;19.38;100845.98;104700;1093;77385;-61
2021/06/07 08:35:58;;;;;;;;;;;;;;;37.57;19.70;100849.06;104718;1093;78429;-62
2021/06/07 08:38:03;;;;;;;;;;;;;;;37.46;19.22;100847.11;104730;1093;77684;-61
2021/06/07 08:40:10;;;;;;;;;;;;;;;37.17;19.33;100839.78;104716;1093;77570;-62
2021/06/07 08:42:17;;;;;;;;;;;;;;;36.80;18.90;100835.39;104679;1093;78726;-58
2021/06/07 08:44:21;;;;;;;;;;;;;;;36.57;18.69;100844.33;104701;1093;77776;-56
2021/06/07 08:46:25;;;;;;;;;;;;;;;36.03;18.96;100831.63;104682;1093;77789;-53
2021/06/07 08:48:29;;;;;;;;;;;;;;;35.60;19.38;100840.52;104749;1093;78529;-54
2021/06/07 08:50:36;;;;;;;;;;;;;;;35.57;19.37;100834.76;104663;1093;77206;-54
2021/06/07 08:52:43;;;;;;;;;;;;;;;35.38;19.04;100833.23;104711;1093;77554;-61
2021/06/07 08:54:47;;;;;;;;;;;;;;;35.13;20.03;100837.13;104698;1093;76671;-63
2021/06/07 08:56:51;;;;;;;;;;;;;;;35.07;20.07;100832.87;104720;1093;77727;-62
2021/06/07 08:58:58;;;;;;;;;;;;;;;35.57;20.04;100826.33;104713;1094;77067;-62
2021/06/07 09:01:05;;;;;;;;;;;;;;;35.37;19.90;100831.61;104732;1093;78387;-62
2021/06/07 09:03:12;;;;;;;;;;;;;;;35.31;20.03;100832.98;104740;1093;78082;-62
2021/06/07 09:05:19;;;;;;;;;;;;;;;35.57;20.64;100829.97;104731;1093;77398;-65
2021/06/07 09:07:23;;;;;;;;;;;;;;;35.29;19.64;100831.69;104769;1093;76588;-63
2021/06/07 09:09:30;;;;;;;;;;;;;;;34.77;20.89;100831.24;104693;1092;77721;-60
2021/06/07 09:11:46;;;;;;;;;;;;;;;34.64;20.21;100832.33;104680;1093;77574;-61
2021/06/07 09:13:50;;;;;;;;;;;;;;;34.40;20.38;100827.30;104682;1093;78071;-62
2021/06/07 09:15:55;;;;;;;;;;;;;;;33.98;20.76;100831.89;104717;1093;77148;-60
2021/06/07 09:18:00;;;;;;;;;;;;;;;33.51;20.86;100833.83;104711;1093;78619;-63
2021/06/07 09:20:15;;;;;;;;;;;;;;;32.68;21.59;100832.28;104684;1093;78212;-62
2021/06/07 09:22:24;;;;;;;;;;;;;;;32.29;22.40;100823.91;104691;1092;76984;-56
2021/06/07 09:24:30;;;;;;;;;;;;;;;31.98;23.01;100819.14;104747;1093;76872;-55
2021/06/07 09:26:38;;;;;;;;;;;;;;;31.97;23.20;100823.10;104700;1093;77468;-63
2021/06/07 09:28:42;;;;;;;;;;;;;;;31.91;23.76;100821.59;104717;1093;77328;-61
2021/06/07 09:30:51;;;;;;;;;;;;;;;32.28;24.21;100811.09;104667;1093;77607;-56
2021/06/07 09:33:19;;;;;;;;;;;;;;;32.44;24.54;100820.67;104744;1091;77545;-56
2021/06/07 09:35:23;;;;;;;;;;;;;;;32.47;23.84;100817.23;104732;1093;78227;-57
2021/06/07 09:37:27;;;;;;;;;;;;;;;32.36;23.99;100813.89;104677;1093;78017;-65
2021/06/07 09:39:31;;;;;;;;;;;;;;;32.08;24.08;100812.49;104708;1093;77992;-64
2021/06/07 09:42:03;;;;;;;;;;;;;;;31.48;24.02;100812.13;104746;1093;78539;-65
2021/06/07 09:44:07;;;;;;;;;;;;;;;30.86;24.22;100814.69;104746;1093;77212;-64
2021/06/07 09:46:11;;;;;;;;;;;;;;;30.55;24.21;100802.55;104748;1093;76804;-64
2021/06/07 09:48:18;;;;;;;;;;;;;;;31.02;26.01;100805.97;104674;1093;76899;-63
2021/06/07 09:50:23;;;;;;;;;;;;;;;30.89;25.17;100802.06;104716;1093;77625;-64
2021/06/07 09:52:32;;;;;;;;;;;;;;;31.26;26.09;100798.94;104746;1093;78337;-64
2021/06/07 09:54:39;;;;;;;;;;;;;;;31.36;26.08;100814.63;104751;1093;78064;-63
2021/06/07 09:56:52;;;;;;;;;;;;;;;31.13;25.15;100796.21;104749;1093;77748;-64
2021/06/07 09:58:56;;;;;;;;;;;;;;;30.77;25.45;100796.20;104689;1093;78065;-62
2021/06/07 10:01:09;;;;;;;;;;;;;;;30.93;26.23;100789.98;104715;1093;77120;-64
2021/06/07 10:03:21;;;;;;;;;;;;;;;31.09;25.30;100792.42;104726;1093;77696;-65
2021/06/07 10:05:33;;;;;;;;;;;;;;;30.67;25.80;100794.48;104708;1093;76664;-63
2021/06/07 10:07:54;;;;;;;;;;;;;;;30.74;26.55;100797.66;104675;1093;78109;-56
2021/06/07 10:10:13;;;;;;;;;;;;;;;30.88;26.33;100790.07;104722;1093;78045;-57
2021/06/07 10:12:25;;;;;;;;;;;;;;;30.89;26.21;100790.91;104723;1093;76734;-63
2021/06/07 10:14:29;;;;;;;;;;;;;;;30.67;26.05;100786.11;104708;1093;77689;-62
2021/06/07 10:16:33;;;;;;;;;;;;;;;30.69;26.54;100785.78;104696;1093;77343;-54
2021/06/07 10:18:37;;;;;;;;;;;;;;;30.46;26.48;100782.13;104739;1093;77225;-56
2021/06/07 10:20:49;;;;;;;;;;;;;;;30.22;26.11;100782.31;104680;1093;77787;-63
2021/06/07 10:22:54;;;;;;;;;;;;;;;30.44;27.25;100784.38;104708;1093;77039;-64
2021/06/07 10:24:58;;;;;;;;;;;;;;;30.59;27.19;100781.27;104706;1093;77370;-60
2021/06/07 10:27:03;;;;;;;;;;;;;;;30.72;26.68;100791.56;104716;1093;77043;-55
2021/06/07 10:29:07;;;;;;;;;;;;;;;30.73;27.05;100795.19;104732;1093;77600;-54
2021/06/07 10:31:17;;;;;;;;;;;;;;;30.78;26.48;100779.16;104712;1091;77618;-60
2021/06/07 10:33:32;;;;;;;;;;;;;;;30.74;25.99;100780.91;104700;1093;78118;-63
2021/06/07 10:35:43;;;;;;;;;;;;;;;30.49;26.48;100777.89;104676;1093;77973;-61
2021/06/07 10:38:08;;;;;;;;;;;;;;;30.65;27.13;100773.63;104736;1093;77501;-54